createdAt,value
2023-03-27T10:00:40.922Z,970.1164
2023-03-27T10:01:42.340Z,970.1085
2023-03-27T10:02:43.814Z,970.1177
2023-03-27T10:03:45.206Z,970.1462
2023-03-27T10:04:46.613Z,970.1653
2023-03-27T10:05:48.092Z,970.2047
2023-03-27T10:06:49.461Z,970.2315
2023-03-27T10:07:50.904Z,970.2608
2023-03-27T10:08:52.340Z,970.2908
2023-03-27T10:09:53.757Z,970.3231
2023-03-27T10:10:55.401Z,970.3469
2023-03-27T10:11:56.631Z,970.3800
2023-03-27T10:12:58.095Z,970.4016
2023-03-27T10:13:59.501Z,970.4100
2023-03-27T10:15:01.722Z,970.4185
2023-03-27T10:16:02.406Z,970.4508
2023-03-27T10:17:03.852Z,970.4831
2023-03-27T10:18:05.223Z,970.5085
2023-03-27T10:19:06.646Z,970.5300
2023-03-27T10:20:08.088Z,970.5477
2023-03-27T10:21:09.511Z,970.5700
2023-03-27T10:22:14.326Z,970.5869
2023-03-27T10:23:12.437Z,970.5992
2023-03-27T10:24:13.822Z,970.6308
2023-03-27T10:25:15.284Z,970.6546
2023-03-27T10:26:16.686Z,970.6808
2023-03-27T10:27:18.113Z,970.6761
2023-03-27T10:28:19.561Z,970.6785
2023-03-27T10:29:21.023Z,970.6938
2023-03-27T10:30:22.413Z,970.7015
2023-03-27T10:31:23.967Z,970.7200
2023-03-27T10:32:25.321Z,970.7369
2023-03-27T10:33:27.393Z,970.7538
2023-03-27T10:34:28.471Z,970.7839
2023-03-27T10:35:29.589Z,970.8070
2023-03-27T10:36:31.022Z,970.8239
2023-03-27T10:37:32.488Z,970.8461
2023-03-27T10:38:33.939Z,970.8423
2023-03-27T10:39:35.321Z,970.8423
2023-03-27T10:40:36.759Z,970.8561
2023-03-27T10:41:38.216Z,970.8646
2023-03-27T10:42:39.642Z,970.9000
2023-03-27T10:43:41.064Z,970.9323
2023-03-27T10:44:42.493Z,970.9438
2023-03-27T10:45:43.984Z,970.9469
2023-03-27T10:46:45.419Z,970.9777
2023-03-27T10:47:46.811Z,970.9615
2023-03-27T10:48:48.247Z,970.9846
2023-03-27T10:49:49.649Z,970.9938
2023-03-27T10:50:51.135Z,971.0169
2023-03-27T10:51:52.538Z,971.0546
2023-03-27T10:52:53.984Z,971.0554
2023-03-27T10:53:55.456Z,971.0892
2023-03-27T10:54:56.829Z,971.1061
2023-03-27T10:55:58.316Z,971.1192
2023-03-27T10:56:59.804Z,971.1431
2023-03-27T10:58:01.142Z,971.1531
2023-03-27T10:59:02.573Z,971.1415
2023-03-27T11:00:04.006Z,971.1615
2023-03-27T11:01:05.547Z,971.1723
2023-03-27T11:02:08.733Z,971.1892
2023-03-27T11:03:08.385Z,971.1846
2023-03-27T11:04:09.746Z,971.1938
2023-03-27T11:05:11.177Z,971.1900
2023-03-27T11:06:12.605Z,971.2023
2023-03-27T11:07:16.241Z,971.1969
2023-03-27T11:08:15.480Z,971.2062
2023-03-27T11:09:16.910Z,971.2177
2023-03-27T11:10:18.338Z,971.2161
2023-03-27T11:11:19.765Z,971.2261
2023-03-27T11:12:21.199Z,971.2469
2023-03-27T11:13:22.640Z,971.2446
2023-03-27T11:14:24.059Z,971.2562
2023-03-27T11:15:25.494Z,971.2669
2023-03-27T11:16:26.963Z,971.2577
2023-03-27T11:17:28.909Z,971.2723
2023-03-27T11:18:29.798Z,971.2684
2023-03-27T11:19:31.283Z,971.2777
2023-03-27T11:20:32.661Z,971.2000
2023-03-27T11:21:34.107Z,971.1377
2023-03-27T11:22:35.541Z,971.1192
2023-03-27T11:23:36.992Z,971.0854
2023-03-27T11:24:38.395Z,971.0623
2023-03-27T11:25:39.841Z,971.0623
2023-03-27T11:26:41.299Z,971.0807
2023-03-27T11:27:42.704Z,971.1254
2023-03-27T11:28:44.134Z,971.2338
2023-03-27T11:29:45.595Z,971.2846
2023-03-27T11:30:47.041Z,971.2831
2023-03-27T11:31:48.553Z,971.3108
2023-03-27T11:32:49.972Z,971.3038
2023-03-27T11:33:51.335Z,971.3108
2023-03-27T11:34:52.733Z,971.3215
2023-03-27T11:35:54.178Z,971.3400
2023-03-27T11:36:55.611Z,971.3446
2023-03-27T11:37:57.043Z,971.3608
2023-03-27T11:38:58.478Z,971.3700
2023-03-27T11:39:59.893Z,971.3962
2023-03-27T11:41:01.334Z,971.4100
2023-03-27T11:42:02.790Z,971.4231
2023-03-27T11:43:04.198Z,971.4631
2023-03-27T11:44:05.625Z,971.4969
2023-03-27T11:45:07.073Z,971.4885
2023-03-27T11:46:08.564Z,971.4669
2023-03-27T11:47:09.920Z,971.4639
2023-03-27T11:48:11.420Z,971.4669
2023-03-27T11:49:12.771Z,971.4708
2023-03-27T11:50:14.221Z,971.4923
2023-03-27T11:51:15.672Z,971.4777
2023-03-27T11:52:17.081Z,971.5023
2023-03-27T11:53:18.503Z,971.5247
2023-03-27T11:54:19.947Z,971.5361
2023-03-27T11:55:21.388Z,971.5285
2023-03-27T11:56:22.817Z,971.5385
2023-03-27T11:57:24.229Z,971.5492
2023-03-27T11:58:25.669Z,971.5608
2023-03-27T11:59:27.088Z,971.5877
2023-03-27T12:00:28.529Z,971.5961
2023-03-27T12:01:30.003Z,971.6016
2023-03-27T12:02:31.566Z,971.6277
2023-03-27T12:03:32.914Z,971.6400
2023-03-27T12:04:34.254Z,971.6477
2023-03-27T12:05:35.702Z,971.6584
2023-03-27T12:06:37.121Z,971.6561
2023-03-27T12:07:40.555Z,971.6584
2023-03-27T12:08:39.983Z,971.6459
2023-03-27T12:09:41.398Z,971.6685
2023-03-27T12:10:42.867Z,971.6785
2023-03-27T12:11:44.277Z,971.6885
2023-03-27T12:12:45.705Z,971.6792
2023-03-27T12:14:48.569Z,971.6792
2023-03-27T12:15:50.007Z,971.6830
2023-03-27T12:16:51.546Z,971.6938
2023-03-27T12:17:52.925Z,971.7031
2023-03-27T12:19:03.847Z,971.7192
2023-03-27T12:19:55.737Z,971.7175
2023-03-27T12:20:57.190Z,971.7146
2023-03-27T12:21:58.626Z,971.7000
2023-03-27T12:23:00.038Z,971.7008
2023-03-27T12:24:01.460Z,971.6877
2023-03-27T12:25:02.904Z,971.6823
2023-03-27T12:26:04.360Z,971.6862
2023-03-27T12:27:05.785Z,971.6923
2023-03-27T12:28:07.205Z,971.7015
2023-03-27T12:29:23.143Z,971.7291
2023-03-27T12:30:10.070Z,971.7609
2023-03-27T12:31:11.507Z,971.7615
2023-03-27T12:32:12.983Z,971.7816
2023-03-27T12:33:14.422Z,971.7938
2023-03-27T12:34:15.802Z,971.8062
2023-03-27T12:35:21.340Z,971.8069
2023-03-27T12:36:18.660Z,971.8130
2023-03-27T12:37:20.105Z,971.8231
2023-03-27T12:38:21.539Z,971.8469
2023-03-27T12:39:22.960Z,971.8638
2023-03-27T12:40:24.425Z,971.8730
2023-03-27T12:41:25.861Z,971.8977
2023-03-27T12:42:27.386Z,971.8923
2023-03-27T12:43:28.714Z,971.8969
2023-03-27T12:44:30.153Z,971.9346
2023-03-27T12:45:34.565Z,971.9300
2023-03-27T12:46:33.055Z,971.9370
2023-03-27T12:47:34.480Z,971.9377
2023-03-27T12:48:35.882Z,971.9185
2023-03-27T12:49:47.002Z,971.9061
2023-03-27T12:50:38.747Z,971.9158
2023-03-27T12:51:40.237Z,971.9069
2023-03-27T12:52:41.653Z,971.9023
2023-03-27T12:53:43.074Z,971.8815
2023-03-27T12:54:44.508Z,971.8762
2023-03-27T12:55:45.945Z,971.8815
2023-03-27T12:56:47.448Z,971.8900
2023-03-27T12:57:48.919Z,971.8815
2023-03-27T12:58:50.234Z,971.8638
2023-03-27T12:59:51.685Z,971.8446
2023-03-27T13:00:53.113Z,971.8685
2023-03-27T13:01:54.570Z,971.8877
2023-03-27T13:02:56.046Z,971.9116
2023-03-27T13:03:57.589Z,971.9215
2023-03-27T13:04:58.878Z,971.9338
2023-03-27T13:06:00.311Z,971.9547
2023-03-27T13:07:01.723Z,971.9470
2023-03-27T13:08:03.163Z,971.9523
2023-03-27T13:09:04.594Z,971.9715
2023-03-27T13:10:06.066Z,971.9946
2023-03-27T13:11:07.447Z,972.0046
2023-03-27T13:12:08.913Z,972.0323
2023-03-27T13:13:10.325Z,971.9746
2023-03-27T13:14:11.745Z,972.0015
2023-03-27T13:15:13.190Z,971.9446
2023-03-27T13:16:14.641Z,971.7908
2023-03-27T13:17:16.059Z,971.8169
2023-03-27T13:18:17.481Z,971.8346
2023-03-27T13:19:18.904Z,971.8531
2023-03-27T13:20:20.358Z,971.8577
2023-03-27T13:21:21.764Z,971.8915
2023-03-27T13:22:23.239Z,972.0485
2023-03-27T13:23:24.630Z,972.1130
2023-03-27T13:24:26.085Z,972.1238
2023-03-27T13:25:27.524Z,972.1223
2023-03-27T13:26:28.949Z,972.1270
2023-03-27T13:27:30.375Z,972.1346
2023-03-27T13:28:31.848Z,972.1462
2023-03-27T13:29:33.229Z,972.1492
2023-03-27T13:30:34.691Z,972.1508
2023-03-27T13:31:36.161Z,972.1692
2023-03-27T13:32:37.580Z,972.1653
2023-03-27T13:33:39.012Z,972.1985
2023-03-27T13:34:40.425Z,972.1830
2023-03-27T13:35:41.860Z,972.1862
2023-03-27T13:36:43.304Z,972.1731
2023-03-27T13:37:44.726Z,972.1669
2023-03-27T13:38:46.152Z,972.1777
2023-03-27T13:39:47.589Z,972.1985
2023-03-27T13:40:48.996Z,972.2415
2023-03-27T13:41:50.431Z,972.2646
2023-03-27T13:42:51.871Z,972.2485
2023-03-27T13:43:53.318Z,972.2708
2023-03-27T13:44:54.738Z,972.2892
2023-03-27T13:45:56.249Z,972.3262
2023-03-27T13:46:57.740Z,972.3354
2023-03-27T13:47:59.029Z,972.2954
2023-03-27T13:49:00.454Z,972.3062
2023-03-27T13:50:01.910Z,972.3231
2023-03-27T13:51:03.317Z,972.3762
2023-03-27T13:52:04.768Z,972.3646
2023-03-27T13:53:06.192Z,972.3746
2023-03-27T13:54:07.609Z,972.3885
2023-03-27T13:55:09.041Z,972.4354
2023-03-27T13:56:10.497Z,972.4623
2023-03-27T13:57:11.898Z,972.4753
2023-03-27T13:58:13.345Z,972.4977
2023-03-27T13:59:14.754Z,972.5323
2023-03-27T14:00:16.228Z,972.5792
2023-03-27T14:01:17.776Z,972.6192
2023-03-27T14:02:19.223Z,972.6508
2023-03-27T14:03:20.657Z,972.6654
2023-03-27T14:04:22.029Z,972.6815
2023-03-27T14:05:23.456Z,972.6908
2023-03-27T14:06:24.942Z,972.7146
2023-03-27T14:07:26.342Z,972.7131
2023-03-27T14:08:27.766Z,972.7015
2023-03-27T14:09:29.195Z,972.7277
2023-03-27T14:10:30.668Z,972.7485
2023-03-27T14:11:32.043Z,972.7600
2023-03-27T14:12:33.529Z,972.7623
2023-03-27T14:13:34.925Z,972.7462
2023-03-27T14:14:36.359Z,972.7538
2023-03-27T14:15:37.804Z,972.7108
2023-03-27T14:16:39.305Z,972.6977
2023-03-27T14:17:40.705Z,972.7084
2023-03-27T14:18:42.083Z,972.7485
2023-03-27T14:19:43.584Z,972.7777
2023-03-27T14:20:44.947Z,972.7685
2023-03-27T14:21:46.383Z,972.7715
2023-03-27T14:22:47.826Z,972.7839
2023-03-27T14:23:49.290Z,972.7908
2023-03-27T14:24:50.681Z,972.7985
2023-03-27T14:25:52.092Z,972.8030
2023-03-27T14:26:53.537Z,972.8208
2023-03-27T14:27:54.976Z,972.8231
2023-03-27T14:28:56.405Z,972.8177
2023-03-27T14:29:57.837Z,972.8262
2023-03-27T14:30:59.269Z,972.7769
2023-03-27T14:32:00.770Z,972.7792
2023-03-27T14:33:02.212Z,972.7946
2023-03-27T14:34:03.561Z,972.7723
2023-03-27T14:35:05.017Z,972.7739
2023-03-27T14:36:06.456Z,972.7569
2023-03-27T14:37:07.859Z,972.7677
2023-03-27T14:38:09.333Z,972.7723
2023-03-27T14:39:10.736Z,972.7915
2023-03-27T14:40:12.143Z,972.7915
2023-03-27T14:41:13.607Z,972.8108
2023-03-27T14:42:15.038Z,972.8185
2023-03-27T14:43:16.464Z,972.8347
2023-03-27T14:44:17.891Z,972.8392
2023-03-27T14:45:19.335Z,972.8469
2023-03-27T14:46:20.799Z,972.8630
2023-03-27T14:47:22.201Z,972.8692
2023-03-27T14:48:23.609Z,972.8823
2023-03-27T14:49:25.078Z,972.8892
2023-03-27T14:50:26.485Z,972.8954
2023-03-27T14:51:27.937Z,972.8954
2023-03-27T14:52:29.360Z,972.9061
2023-03-27T14:53:30.809Z,972.9246
2023-03-27T14:54:39.141Z,972.9277
2023-03-27T14:55:33.684Z,972.9300
2023-03-27T14:56:35.140Z,972.9177
2023-03-27T14:57:36.537Z,972.9146
2023-03-27T14:58:37.968Z,972.9061
2023-03-27T14:59:39.410Z,972.8992
2023-03-27T15:00:40.852Z,972.9084
2023-03-27T15:01:42.410Z,972.9131
2023-03-27T15:02:43.725Z,972.9392
2023-03-27T15:03:45.263Z,972.9438
2023-03-27T15:04:46.658Z,972.9485
2023-03-27T15:05:48.038Z,972.9569
2023-03-27T15:06:49.438Z,972.9569
2023-03-27T15:07:50.880Z,972.9608
2023-03-27T15:08:52.328Z,972.9600
2023-03-27T15:09:53.757Z,972.9823
2023-03-27T15:10:55.354Z,972.9792
2023-03-27T15:11:56.629Z,972.9800
2023-03-27T15:12:58.042Z,972.9923
2023-03-27T15:13:59.490Z,973.0031
2023-03-27T15:15:00.922Z,973.0085
2023-03-27T15:16:02.352Z,973.0185
2023-03-27T15:17:03.802Z,973.0453
2023-03-27T15:18:05.241Z,973.0461
2023-03-27T15:19:06.637Z,973.0477
2023-03-27T15:20:08.097Z,973.0415
2023-03-27T15:21:09.504Z,973.0792
2023-03-27T15:22:10.954Z,973.1008
2023-03-27T15:23:12.374Z,973.0800
2023-03-27T15:24:13.831Z,973.0708
2023-03-27T15:25:15.250Z,973.0977
2023-03-27T15:26:16.677Z,973.1200
2023-03-27T15:27:18.104Z,973.1223
2023-03-27T15:28:19.537Z,973.1077
2023-03-27T15:29:20.999Z,973.0923
2023-03-27T15:30:22.402Z,973.1093
2023-03-27T15:31:23.890Z,973.1339
2023-03-27T15:32:25.312Z,973.1500
2023-03-27T15:33:26.719Z,973.1661
2023-03-27T15:34:28.138Z,973.1746
2023-03-27T15:35:29.586Z,973.1969
2023-03-27T15:36:30.989Z,973.2139
2023-03-27T15:37:32.421Z,973.2308
2023-03-27T15:38:33.854Z,973.2369
2023-03-27T15:39:35.284Z,973.2623
2023-03-27T15:40:36.852Z,973.2954
2023-03-27T15:41:38.185Z,973.3323
2023-03-27T15:42:39.599Z,973.3561
2023-03-27T15:43:41.024Z,973.3984
2023-03-27T15:44:42.448Z,973.3939
2023-03-27T15:45:43.860Z,973.3954
2023-03-27T15:46:45.419Z,973.3892
2023-03-27T15:47:46.789Z,973.3770
2023-03-27T15:48:48.190Z,973.3939
2023-03-27T15:49:49.596Z,973.4208
2023-03-27T15:50:51.048Z,973.4108
2023-03-27T15:51:52.488Z,973.3962
2023-03-27T15:52:53.905Z,973.3870
2023-03-27T15:53:55.325Z,973.3892
2023-03-27T15:54:56.764Z,973.3815
2023-03-27T15:55:58.348Z,973.3630
2023-03-27T15:57:10.488Z,973.3546
2023-03-27T15:58:01.043Z,973.3541
2023-03-27T15:59:02.531Z,973.3538
2023-03-27T16:00:03.913Z,973.3347
2023-03-27T16:01:18.285Z,973.3323
2023-03-27T16:02:06.778Z,973.3275
2023-03-27T16:03:08.284Z,973.3246
2023-03-27T16:04:09.762Z,973.3362
2023-03-27T16:05:11.090Z,973.3484
2023-03-27T16:06:12.548Z,973.3377
2023-03-27T16:07:13.940Z,973.3215
2023-03-27T16:08:15.372Z,973.3146
2023-03-27T16:09:16.809Z,973.3146
2023-03-27T16:10:18.261Z,973.3285
2023-03-27T16:11:19.702Z,973.3323
2023-03-27T16:12:21.090Z,973.3385
2023-03-27T16:13:22.533Z,973.3315
2023-03-27T16:14:23.985Z,973.3277
2023-03-27T16:15:25.439Z,973.3246
2023-03-27T16:16:26.877Z,973.3200
2023-03-27T16:17:28.251Z,973.3100
2023-03-27T16:18:29.653Z,973.3008
2023-03-27T16:19:31.073Z,973.3130
2023-03-27T16:20:32.474Z,973.3446
2023-03-27T16:21:33.913Z,973.3623
2023-03-27T16:22:35.319Z,973.3654
2023-03-27T16:23:36.767Z,973.3738
2023-03-27T16:24:38.184Z,973.3870
2023-03-27T16:25:39.598Z,973.4039
2023-03-27T16:26:41.034Z,973.4084
2023-03-27T16:27:42.455Z,973.4131
2023-03-27T16:28:43.920Z,973.4077
2023-03-27T16:29:45.295Z,973.4138
2023-03-27T16:30:46.703Z,973.4300
2023-03-27T16:31:48.240Z,973.4477
2023-03-27T16:32:49.592Z,973.4600
2023-03-27T16:33:51.019Z,973.4600
2023-03-27T16:34:52.394Z,973.4831
2023-03-27T16:35:53.855Z,973.4977
2023-03-27T16:36:55.229Z,973.4892
2023-03-27T16:37:56.648Z,973.4908
2023-03-27T16:38:58.103Z,973.5031
2023-03-27T16:39:59.511Z,973.5170
2023-03-27T16:41:00.916Z,973.5269
2023-03-27T16:42:02.614Z,973.5469
2023-03-27T16:43:03.794Z,973.5754
2023-03-27T16:44:05.194Z,973.5762
2023-03-27T16:45:06.640Z,973.6053
2023-03-27T16:46:08.055Z,973.6623
2023-03-27T16:47:09.455Z,973.7008
2023-03-27T16:48:10.925Z,973.7039
2023-03-27T16:49:12.272Z,973.7108
2023-03-27T16:50:13.708Z,973.6946
2023-03-27T16:51:15.117Z,973.7008
2023-03-27T16:52:16.587Z,973.7215
2023-03-27T16:53:17.980Z,973.7269
2023-03-27T16:54:19.388Z,973.7246
2023-03-27T16:55:20.828Z,973.7230
2023-03-27T16:56:22.254Z,973.7285
2023-03-27T16:57:23.635Z,973.7438
2023-03-27T16:58:25.060Z,973.7546
2023-03-27T16:59:26.474Z,973.7577
2023-03-27T17:00:27.928Z,973.7608
2023-03-27T17:01:29.377Z,973.7523
2023-03-27T17:02:32.757Z,973.7492
2023-03-27T17:03:32.177Z,973.7454
2023-03-27T17:04:33.619Z,973.7408
2023-03-27T17:05:35.009Z,973.7554
2023-03-27T17:06:36.460Z,973.7523
2023-03-27T17:07:37.868Z,973.7670
2023-03-27T17:08:39.303Z,973.7646
2023-03-27T17:09:40.730Z,973.7554
2023-03-27T17:10:42.162Z,973.7562
2023-03-27T17:11:43.554Z,973.7538
2023-03-27T17:12:44.963Z,973.7715
2023-03-27T17:13:46.376Z,973.8030
2023-03-27T17:14:47.823Z,973.8069
2023-03-27T17:15:49.250Z,973.8208
2023-03-27T17:16:50.749Z,973.8323
2023-03-27T17:17:52.141Z,973.8354
2023-03-27T17:18:53.521Z,973.8392
2023-03-27T17:19:55.038Z,973.8461
2023-03-27T17:20:56.356Z,973.8569
2023-03-27T17:21:57.752Z,973.8477
2023-03-27T17:22:59.184Z,973.8385
2023-03-27T17:24:01.094Z,973.8608
2023-03-27T17:25:02.027Z,973.8892
2023-03-27T17:26:03.465Z,973.9108
2023-03-27T17:27:04.890Z,973.9377
2023-03-27T17:28:06.274Z,973.9477
2023-03-27T17:29:07.733Z,973.9470
2023-03-27T17:30:09.142Z,973.9684
2023-03-27T17:31:10.596Z,973.9815
2023-03-27T17:32:11.979Z,973.9831
2023-03-27T17:33:13.404Z,973.9930
2023-03-27T17:34:14.818Z,974.0046
2023-03-27T17:35:16.251Z,974.0131
2023-03-27T17:36:23.815Z,974.0108
2023-03-27T17:37:19.101Z,974.0167
2023-03-27T17:38:20.515Z,974.0323
2023-03-27T17:39:21.928Z,974.0416
2023-03-27T17:40:23.338Z,974.0554
2023-03-27T17:41:24.808Z,974.0515
2023-03-27T17:42:26.180Z,974.0538
2023-03-27T17:43:27.613Z,974.0577
2023-03-27T17:44:29.022Z,974.0770
2023-03-27T17:45:30.450Z,974.1000
2023-03-27T17:46:31.868Z,974.1277
2023-03-27T17:47:33.317Z,974.1554
2023-03-27T17:48:34.706Z,974.1870
2023-03-27T17:49:36.126Z,974.1938
2023-03-27T17:50:37.547Z,974.2062
2023-03-27T17:51:38.969Z,974.2300
2023-03-27T17:52:40.383Z,974.2477
2023-03-27T17:53:41.807Z,974.2670
2023-03-27T17:54:43.206Z,974.2762
2023-03-27T17:55:44.632Z,974.2831
2023-03-27T17:56:46.102Z,974.3000
2023-03-27T17:57:53.135Z,974.3123
2023-03-27T17:58:48.911Z,974.3234
2023-03-27T17:59:50.319Z,974.3270
2023-03-27T18:00:51.733Z,974.3461
2023-03-27T18:01:53.187Z,974.3654
2023-03-27T18:02:54.686Z,974.3954
2023-03-27T18:03:56.235Z,974.4153
2023-03-27T18:04:57.536Z,974.4362
2023-03-27T18:05:59.143Z,974.4669
2023-03-27T18:07:00.374Z,974.4969
2023-03-27T18:08:01.817Z,974.5139
2023-03-27T18:09:03.227Z,974.5192
2023-03-27T18:10:04.641Z,974.5239
2023-03-27T18:11:06.117Z,974.5500
2023-03-27T18:12:07.482Z,974.5807
2023-03-27T18:13:08.897Z,974.5961
2023-03-27T18:14:10.386Z,974.6146
2023-03-27T18:15:13.561Z,974.6415
2023-03-27T18:16:13.192Z,974.6546
2023-03-27T18:17:14.606Z,974.6830
2023-03-27T18:18:16.024Z,974.7008
2023-03-27T18:19:17.408Z,974.7092
2023-03-27T18:20:18.819Z,974.7354
2023-03-27T18:21:20.301Z,974.7592
2023-03-27T18:22:21.679Z,974.7985
2023-03-27T18:23:23.091Z,974.8031
2023-03-27T18:24:24.507Z,974.8377
2023-03-27T18:25:25.977Z,974.8492
2023-03-27T18:26:27.348Z,974.8262
2023-03-27T18:27:28.758Z,974.8354
2023-03-27T18:28:30.173Z,974.8569
2023-03-27T18:29:31.602Z,974.8600
2023-03-27T18:30:33.018Z,974.8708
2023-03-27T18:31:34.477Z,974.8770
2023-03-27T18:32:35.919Z,974.9016
2023-03-27T18:33:37.287Z,974.9169
2023-03-27T18:34:38.714Z,974.9400
2023-03-27T18:35:40.170Z,974.9423
2023-03-27T18:36:41.573Z,974.9431
2023-03-27T18:37:43.029Z,974.9684
2023-03-27T18:38:44.377Z,974.9930
2023-03-27T18:39:45.824Z,975.0108
2023-03-27T18:40:47.233Z,975.0392
2023-03-27T18:41:48.690Z,975.0461
2023-03-27T18:42:50.107Z,975.0608
2023-03-27T18:43:51.534Z,975.0785
2023-03-27T18:44:52.907Z,975.0785
2023-03-27T18:45:54.368Z,975.0723
2023-03-27T18:46:55.791Z,975.0862
2023-03-27T18:47:57.237Z,975.1123
2023-03-27T18:48:58.580Z,975.1093
2023-03-27T18:50:00.037Z,975.1185
2023-03-27T18:51:01.445Z,975.1385
2023-03-27T18:52:04.770Z,975.1407
2023-03-27T18:53:04.305Z,975.1808
2023-03-27T18:54:05.709Z,975.1877
2023-03-27T18:55:07.128Z,975.2031
2023-03-27T18:56:08.562Z,975.2039
2023-03-27T18:57:10.046Z,975.2169
2023-03-27T18:58:11.435Z,975.2231
2023-03-27T18:59:12.793Z,975.2361
2023-03-27T19:00:14.240Z,975.2531
2023-03-27T19:01:15.735Z,975.2600
2023-03-27T19:02:17.139Z,975.2346
2023-03-27T19:03:18.554Z,975.2338
2023-03-27T19:04:19.977Z,975.2492
2023-03-27T19:05:21.350Z,975.2485
2023-03-27T19:06:22.772Z,975.2430
2023-03-27T19:07:24.178Z,975.2338
2023-03-27T19:08:25.651Z,975.2408
2023-03-27T19:09:34.390Z,975.2492
2023-03-27T19:10:28.476Z,975.2584
2023-03-27T19:11:29.869Z,975.2577
2023-03-27T19:12:32.092Z,975.2731
2023-03-27T19:13:32.698Z,975.2615
2023-03-27T19:14:34.141Z,975.2515
2023-03-27T19:15:35.550Z,975.2623
2023-03-27T19:16:37.011Z,975.2677
2023-03-27T19:17:38.429Z,975.2747
2023-03-27T19:18:39.803Z,975.2777
2023-03-27T19:19:41.223Z,975.2692
2023-03-27T19:20:42.681Z,975.2723
2023-03-27T19:21:44.046Z,975.2769
2023-03-27T19:22:45.482Z,975.3062
2023-03-27T19:23:46.891Z,975.3038
2023-03-27T19:24:48.348Z,975.3015
2023-03-27T19:25:49.752Z,975.3100
2023-03-27T19:26:51.144Z,975.3215
2023-03-27T19:27:52.562Z,975.3038
2023-03-27T19:28:53.998Z,975.3138
2023-03-27T19:29:55.406Z,975.3192
2023-03-27T19:30:57.054Z,975.3246
2023-03-27T19:31:58.223Z,975.3577
2023-03-27T19:32:59.759Z,975.3862
2023-03-27T19:34:01.118Z,975.3354
2023-03-27T19:35:02.484Z,975.3785
2023-03-27T19:36:03.910Z,975.3777
2023-03-27T19:37:05.337Z,975.4016
2023-03-27T19:38:06.739Z,975.3946
2023-03-27T19:39:08.210Z,975.4046
2023-03-27T19:40:09.560Z,975.4153
2023-03-27T19:41:10.978Z,975.4092
2023-03-27T19:42:12.429Z,975.4323
2023-03-27T19:43:13.827Z,975.4531
2023-03-27T19:44:15.236Z,975.4954
2023-03-27T19:45:16.682Z,975.5185
2023-03-27T19:46:18.105Z,975.5223
2023-03-27T19:47:19.498Z,975.5408
2023-03-27T19:48:20.945Z,975.5423
2023-03-27T19:49:22.351Z,975.5408
2023-03-27T19:50:23.754Z,975.5662
2023-03-27T19:51:25.309Z,975.5992
2023-03-27T19:52:26.632Z,975.5984
2023-03-27T19:53:28.054Z,975.6038
2023-03-27T19:54:31.241Z,975.6492
2023-03-27T19:55:30.889Z,975.6477
2023-03-27T19:56:32.406Z,975.6685
2023-03-27T19:57:33.798Z,975.6815
2023-03-27T19:58:35.138Z,975.7023
2023-03-27T19:59:36.550Z,975.7438
2023-03-27T20:00:38.003Z,975.7662
2023-03-27T20:01:39.434Z,975.8146
2023-03-27T20:02:40.889Z,975.8523
2023-03-27T20:03:42.338Z,975.8939
2023-03-27T20:04:43.650Z,975.9146
2023-03-27T20:05:45.045Z,975.9539
2023-03-27T20:06:46.481Z,975.9854
2023-03-27T20:07:47.892Z,976.0223
2023-03-27T20:08:49.309Z,976.0569
2023-03-27T20:09:50.735Z,976.0630
2023-03-27T20:10:52.121Z,976.1023
2023-03-27T20:11:53.542Z,976.1131
2023-03-27T20:12:54.984Z,976.1285
2023-03-27T20:13:57.165Z,976.1623
2023-03-27T20:15:10.980Z,976.1738
2023-03-27T20:15:59.393Z,976.1866
2023-03-27T20:17:00.635Z,976.1908
2023-03-27T20:18:02.140Z,976.1900
2023-03-27T20:19:04.012Z,976.1785
2023-03-27T20:20:04.920Z,976.1854
2023-03-27T20:21:06.323Z,976.2031
2023-03-27T20:22:07.782Z,976.2238
2023-03-27T20:23:09.176Z,976.2338
2023-03-27T20:24:10.643Z,976.2646
2023-03-27T20:25:12.007Z,976.3077
2023-03-27T20:26:13.480Z,976.3461
2023-03-27T20:27:14.858Z,976.3592
2023-03-27T20:28:16.269Z,976.3577
2023-03-27T20:29:17.681Z,976.3277
2023-03-27T20:30:19.101Z,976.2985
2023-03-27T20:31:20.678Z,976.2953
2023-03-27T20:32:21.960Z,976.3200
2023-03-27T20:33:23.343Z,976.3339
2023-03-27T20:34:24.789Z,976.3446
2023-03-27T20:35:26.248Z,976.3523
2023-03-27T20:36:27.606Z,976.3483
2023-03-27T20:37:29.030Z,976.3654
2023-03-27T20:38:30.459Z,976.3723
2023-03-27T20:39:31.862Z,976.3738
2023-03-27T20:40:42.533Z,976.3785
2023-03-27T20:41:34.703Z,976.3967
2023-03-27T20:42:36.140Z,976.4084
2023-03-27T20:43:37.559Z,976.3977
2023-03-27T20:44:39.036Z,976.4116
2023-03-27T20:45:40.396Z,976.4061
2023-03-27T20:46:41.862Z,976.3939
2023-03-27T20:47:43.315Z,976.4169
2023-03-27T20:48:44.683Z,976.4177
2023-03-27T20:49:46.097Z,976.4467
2023-03-27T20:50:47.530Z,976.4592
2023-03-27T20:51:48.937Z,976.4846
2023-03-27T20:52:50.354Z,976.5254
2023-03-27T20:53:51.798Z,976.5477
2023-03-27T20:54:53.205Z,976.5385
2023-03-27T20:55:59.824Z,976.5461
2023-03-27T20:56:56.084Z,976.5392
2023-03-27T20:57:57.465Z,976.5408
2023-03-27T20:58:58.892Z,976.5523
2023-03-27T21:00:00.275Z,976.5754
2023-03-27T21:01:01.777Z,976.5916
2023-03-27T21:02:03.169Z,976.6000
2023-03-27T21:03:04.616Z,976.6138
2023-03-27T21:04:05.982Z,976.6315
2023-03-27T21:05:07.409Z,976.6431
2023-03-27T21:06:08.823Z,976.6730
2023-03-27T21:07:10.261Z,976.6885
2023-03-27T21:08:11.667Z,976.6962
2023-03-27T21:09:13.075Z,976.7069
2023-03-27T21:10:14.483Z,976.7077
2023-03-27T21:11:15.925Z,976.7161
2023-03-27T21:12:17.320Z,976.7285
2023-03-27T21:13:18.774Z,976.7469
2023-03-27T21:14:20.171Z,976.7554
2023-03-27T21:15:21.589Z,976.7623
2023-03-27T21:16:23.095Z,976.7731
2023-03-27T21:17:24.431Z,976.7969
2023-03-27T21:18:25.831Z,976.8069
2023-03-27T21:19:27.267Z,976.8077
2023-03-27T21:20:28.674Z,976.8223
2023-03-27T21:21:30.151Z,976.8346
2023-03-27T21:22:31.478Z,976.8292
2023-03-27T21:23:32.906Z,976.8416
2023-03-27T21:24:34.342Z,976.8492
2023-03-27T21:25:35.788Z,976.8654
2023-03-27T21:26:37.171Z,976.8815
2023-03-27T21:27:38.592Z,976.9008
2023-03-27T21:28:40.001Z,976.9169
2023-03-27T21:29:41.441Z,976.9230
2023-03-27T21:30:47.026Z,976.9415
2023-03-27T21:31:44.299Z,976.9667
2023-03-27T21:32:45.735Z,976.9808
2023-03-27T21:33:47.132Z,976.9885
2023-03-27T21:34:48.532Z,977.0023
2023-03-27T21:35:49.983Z,977.0170
2023-03-27T21:36:51.448Z,977.0085
2023-03-27T21:37:52.823Z,977.0115
2023-03-27T21:38:54.229Z,977.0139
2023-03-27T21:39:55.688Z,977.0131
2023-03-27T21:40:57.094Z,977.0239
2023-03-27T21:41:58.494Z,977.0300
2023-03-27T21:42:59.926Z,977.0247
2023-03-27T21:44:01.339Z,977.0208
2023-03-27T21:45:02.733Z,977.0247
2023-03-27T21:46:04.254Z,977.0223
2023-03-27T21:47:05.588Z,977.0070
2023-03-27T21:48:07.065Z,976.9985
2023-03-27T21:49:08.426Z,976.9985
2023-03-27T21:50:09.864Z,976.9992
2023-03-27T21:51:11.433Z,977.0054
2023-03-27T21:52:12.774Z,977.0046
2023-03-27T21:53:14.114Z,977.0100
2023-03-27T21:54:15.522Z,977.0092
2023-03-27T21:55:16.928Z,977.0038
2023-03-27T21:56:18.393Z,977.0085
2023-03-27T21:57:19.863Z,977.0085
2023-03-27T21:58:21.207Z,977.0100
2023-03-27T21:59:22.610Z,977.0231
2023-03-27T22:00:24.070Z,977.0354
2023-03-27T22:01:25.473Z,977.0577
2023-03-27T22:02:26.979Z,977.1000